Time;durP1;ratioP1;P1;durP2;ratioP2;P2;SDS_P1;SDS_P2;PMS_P1;PMS_P2;Temp;Humidity;BMP_temperature;BMP_pressure;BME280_temperature;BME280_humidity;BME280_pressure;Samples;Min_cycle;Max_cycle;Signal;HPM_P1;HPM_P2
2021/01/30 00:02:16;;;;;;;3.80;3.57;;;;;;;6.23;89.46;95455.22;5051260;28;20213;-72
2021/01/30 00:04:41;;;;;;;5.00;3.47;;;;;;;6.23;88.68;95459.63;5050432;28;20515;-70
2021/01/30 00:07:06;;;;;;;3.80;3.60;;;;;;;6.21;89.15;95456.47;5051559;28;20328;-69
2021/01/30 00:09:32;;;;;;;3.80;3.60;;;;;;;6.17;88.40;95461.34;5050927;28;20524;-74
2021/01/30 00:12:00;;;;;;;3.30;3.10;;;;;;;6.23;89.26;95472.66;5049045;28;20201;-70
2021/01/30 00:14:32;;;;;;;3.97;3.67;;;;;;;6.27;87.95;95473.75;5033102;28;20520;-70
2021/01/30 00:16:59;;;;;;;4.30;4.10;;;;;;;6.26;87.23;95475.56;5050093;28;20582;-70
2021/01/30 00:19:24;;;;;;;4.07;3.77;;;;;;;6.31;86.75;95479.28;5051242;28;20288;-70
2021/01/30 00:21:56;;;;;;;3.80;3.60;;;;;;;6.32;86.79;95483.47;5049932;28;20293;-69
2021/01/30 00:24:23;;;;;;;3.37;3.23;;;;;;;6.39;86.86;95487.53;5050743;28;20190;-69
2021/01/30 00:26:58;;;;;;;3.57;3.27;;;;;;;6.41;86.56;95482.09;5049589;28;20236;-69
2021/01/30 00:29:26;;;;;;;3.30;3.10;;;;;;;6.32;85.42;95470.47;5050938;28;20182;-69
2021/01/30 00:31:52;;;;;;;3.80;3.40;;;;;;;6.28;85.46;95479.75;5049797;28;20200;-69
2021/01/30 00:34:20;;;;;;;3.07;2.83;;;;;;;6.31;85.32;95472.25;5050760;28;20194;-70
2021/01/30 00:36:49;;;;;;;3.07;2.90;;;;;;;6.30;85.88;95469.91;5049842;28;20555;-71
2021/01/30 00:39:15;;;;;;;3.70;3.50;;;;;;;6.27;85.16;95471.16;5051228;28;20229;-70
2021/01/30 00:41:40;;;;;;;3.77;3.50;;;;;;;6.21;85.39;95470.28;5050039;28;20213;-70
2021/01/30 00:44:06;;;;;;;3.20;3.00;;;;;;;6.19;84.92;95474.91;5050821;28;20260;-70
2021/01/30 00:46:31;;;;;;;2.70;2.60;;;;;;;6.17;85.78;95474.38;5050889;28;20210;-74
2021/01/30 00:48:57;;;;;;;3.33;3.03;;;;;;;6.20;85.20;95460.88;5050111;28;20545;-69
2021/01/30 00:51:22;;;;;;;3.63;3.43;;;;;;;6.13;86.26;95470.63;5051149;28;20578;-70
2021/01/30 00:53:48;;;;;;;3.07;2.93;;;;;;;6.09;85.31;95473.91;5049792;28;20182;-70
2021/01/30 00:56:14;;;;;;;2.97;2.77;;;;;;;6.04;85.62;95477.22;5050922;28;20192;-69
2021/01/30 00:58:40;;;;;;;4.53;2.70;;;;;;;6.11;84.79;95475.28;5052789;28;20178;-70
2021/01/30 01:01:06;;;;;;;2.80;2.70;;;;;;;6.13;84.78;95464.66;5053950;28;20638;-70
2021/01/30 01:03:31;;;;;;;2.80;2.70;;;;;;;6.21;83.98;95470.28;5054367;28;20204;-74
2021/01/30 01:05:57;;;;;;;2.77;2.67;;;;;;;6.23;83.75;95470.03;5053820;28;20268;-70
2021/01/30 01:08:23;;;;;;;3.27;2.97;;;;;;;6.19;83.95;95481.91;5054401;28;20264;-70
2021/01/30 01:10:48;;;;;;;2.90;2.80;;;;;;;6.25;84.04;95479.19;5053540;28;20193;-70
2021/01/30 01:13:14;;;;;;;3.17;2.90;;;;;;;6.18;84.28;95467.34;5053937;28;20235;-70
2021/01/30 01:15:39;;;;;;;2.40;2.30;;;;;;;6.09;85.00;95472.09;5053060;28;20254;-71
2021/01/30 01:18:04;;;;;;;3.00;2.80;;;;;;;5.98;85.48;95480.72;5054487;28;20189;-70
2021/01/30 01:20:30;;;;;;;2.70;2.50;;;;;;;5.98;85.63;95483.34;5054644;28;20269;-70
2021/01/30 01:22:55;;;;;;;2.40;2.30;;;;;;;5.96;85.67;95477.59;5053138;28;20181;-70
2021/01/30 01:25:21;;;;;;;2.67;2.57;;;;;;;5.83;86.73;95483.00;5054216;28;20530;-70
2021/01/30 01:27:48;;;;;;;2.53;2.43;;;;;;;5.93;86.27;95477.25;5053591;28;20627;-71
2021/01/30 01:30:15;;;;;;;2.90;2.77;;;;;;;5.96;86.52;95482.78;5054042;28;20182;-70
2021/01/30 01:32:41;;;;;;;3.00;2.80;;;;;;;5.97;86.56;95486.94;5053180;28;20185;-69
2021/01/30 01:35:07;;;;;;;2.97;2.80;;;;;;;5.99;86.64;95481.53;5053370;28;20192;-70
2021/01/30 01:37:32;;;;;;;2.77;2.63;;;;;;;6.04;86.31;95492.81;5035165;28;20292;-73
2021/01/30 01:39:58;;;;;;;4.00;3.03;;;;;;;6.15;86.03;95480.81;5053519;28;20627;-69
2021/01/30 01:42:25;;;;;;;3.20;3.00;;;;;;;6.19;85.75;95484.50;5053895;28;20643;-69
2021/01/30 01:44:52;;;;;;;3.87;2.77;;;;;;;6.25;85.46;95483.59;5052902;28;20700;-69
2021/01/30 01:47:33;;;;;;;3.10;2.90;;;;;;;6.32;85.55;95473.84;5053344;28;20244;-69
2021/01/30 01:50:03;;;;;;;3.20;3.00;;;;;;;6.33;84.94;95485.06;5053276;28;20242;-69
2021/01/30 01:52:40;;;;;;;2.50;2.30;;;;;;;6.31;85.39;95482.66;5053825;28;20185;-69
2021/01/30 01:55:18;;;;;;;2.70;2.60;;;;;;;6.34;85.53;95486.63;5038282;28;20181;-69
2021/01/30 01:57:50;;;;;;;2.70;2.60;;;;;;;6.31;86.26;95489.69;5052925;28;20182;-69
2021/01/30 02:00:16;;;;;;;2.27;2.27;;;;;;;6.31;85.87;95487.88;5052902;28;20239;-70
2021/01/30 02:02:42;;;;;;;2.63;2.43;;;;;;;6.28;86.18;95496.16;5052400;28;20186;-70
2021/01/30 02:05:21;;;;;;;2.33;2.13;;;;;;;6.28;86.54;95488.34;5053440;28;20601;-69
2021/01/30 02:07:47;;;;;;;2.37;2.27;;;;;;;6.32;86.56;95483.47;5052795;28;20535;-69
2021/01/30 02:10:24;;;;;;;2.10;2.00;;;;;;;6.28;87.01;95480.53;5052337;28;20194;-69
2021/01/30 02:12:52;;;;;;;1.97;1.90;;;;;;;6.24;86.71;95479.44;5052531;28;20185;-72
2021/01/30 02:15:20;;;;;;;2.40;2.30;;;;;;;6.18;87.15;95480.34;5052707;28;20186;-69
2021/01/30 02:18:07;;;;;;;2.60;2.47;;;;;;;6.18;87.25;95480.34;5052229;28;20185;-69
2021/01/30 02:21:07;;;;;;;2.40;2.30;;;;;;;6.13;87.74;95473.22;5052753;28;20188;-70
2021/01/30 02:24:03;;;;;;;2.43;2.30;;;;;;;6.24;87.69;95469.78;5053076;28;20185;-71
2021/01/30 02:26:46;;;;;;;2.17;2.17;;;;;;;6.23;87.86;95467.44;5039347;28;20228;-69
2021/01/30 02:29:26;;;;;;;2.10;2.00;;;;;;;6.14;88.59;95471.41;5052917;28;20677;-70
2021/01/30 02:32:17;;;;;;;2.57;2.37;;;;;;;6.29;88.01;95463.13;5050024;28;20185;-70
2021/01/30 02:34:58;;;;;;;2.43;2.33;;;;;;;6.15;89.33;95471.19;5052255;28;20209;-71
2021/01/30 02:37:29;;;;;;;2.80;2.23;;;;;;;6.19;89.17;95467.09;5052419;28;20626;-70
2021/01/30 02:40:06;;;;;;;2.53;2.40;;;;;;;6.17;89.28;95468.38;5051765;28;20250;-71
2021/01/30 02:42:42;;;;;;;2.10;2.00;;;;;;;6.17;88.45;95465.75;5052795;28;20184;-69
2021/01/30 02:45:20;;;;;;;2.43;2.33;;;;;;;6.11;89.44;95461.47;5052951;28;20619;-70
2021/01/30 02:47:56;;;;;;;2.63;2.53;;;;;;;6.19;88.83;95454.09;5051044;28;20646;-71
2021/01/30 02:50:25;;;;;;;2.87;2.67;;;;;;;6.00;89.96;95460.50;5052484;28;20182;-69
2021/01/30 02:52:54;;;;;;;2.67;2.57;;;;;;;5.98;90.16;95457.31;5051488;28;20190;-69
2021/01/30 02:55:20;;;;;;;2.27;2.20;;;;;;;5.95;89.51;95470.00;5052429;28;20194;-69
2021/01/30 02:57:47;;;;;;;2.33;2.30;;;;;;;5.90;90.45;95467.31;5051410;28;20178;-69
2021/01/30 03:00:17;;;;;;;2.30;2.23;;;;;;;5.95;89.63;95451.81;5051687;28;20182;-69
2021/01/30 03:02:42;;;;;;;2.10;2.10;;;;;;;5.90;89.95;95462.09;5051201;28;20277;-69
2021/01/30 03:05:10;;;;;;;2.20;2.20;;;;;;;6.00;89.53;95444.09;5051807;28;20284;-69
2021/01/30 03:08:00;;;;;;;2.20;2.20;;;;;;;5.81;90.04;95440.81;5051103;28;20181;-73
2021/01/30 03:10:36;;;;;;;2.70;2.57;;;;;;;5.88;89.57;95435.53;5052016;28;20182;-69
2021/01/30 03:13:16;;;;;;;1.97;1.97;;;;;;;5.80;89.60;95423.66;5050995;28;20166;-69
2021/01/30 03:15:54;;;;;;;3.03;2.70;;;;;;;5.84;89.29;95422.97;5050969;28;20182;-69
2021/01/30 03:18:24;;;;;;;2.83;2.73;;;;;;;5.70;90.21;95431.25;5052120;28;20185;-70
2021/01/30 03:20:51;;;;;;;2.30;2.30;;;;;;;5.72;90.22;95434.41;5044747;28;20178;-69
2021/01/30 03:23:19;;;;;;;2.57;2.47;;;;;;;5.87;89.42;95429.53;5051827;28;20182;-69
2021/01/30 03:25:46;;;;;;;2.70;2.60;;;;;;;5.84;89.44;95429.97;5050854;28;20243;-70
2021/01/30 03:28:12;;;;;;;2.40;2.30;;;;;;;5.89;89.43;95435.31;5051825;28;20186;-70
2021/01/30 03:30:38;;;;;;;2.97;2.87;;;;;;;5.80;90.21;95432.22;5050603;28;20732;-74
2021/01/30 03:33:05;;;;;;;2.77;2.67;;;;;;;5.66;91.01;95435.31;5051163;28;20182;-70
2021/01/30 03:35:31;;;;;;;2.63;2.53;;;;;;;5.75;91.05;95446.94;5051606;28;20232;-70
2021/01/30 03:37:56;;;;;;;2.70;2.60;;;;;;;5.89;89.82;95437.13;5050769;28;20885;-70
2021/01/30 03:40:22;;;;;;;2.70;2.60;;;;;;;5.83;90.32;95428.41;5051647;28;20190;-69
2021/01/30 03:42:48;;;;;;;2.40;2.30;;;;;;;5.89;90.13;95434.53;5050013;28;20190;-70
2021/01/30 03:45:18;;;;;;;2.83;2.73;;;;;;;5.98;89.50;95435.72;5051680;28;20174;-70
2021/01/30 03:47:43;;;;;;;2.73;2.63;;;;;;;5.91;89.69;95425.44;5049662;28;20185;-70
2021/01/30 03:50:09;;;;;;;3.03;2.90;;;;;;;5.82;90.62;95419.81;5051721;28;20178;-70
2021/01/30 03:52:35;;;;;;;2.57;2.40;;;;;;;5.76;91.84;95433.72;5033344;28;20204;-71
2021/01/30 03:55:02;;;;;;;2.97;2.87;;;;;;;5.96;90.90;95419.59;5050739;28;20178;-69
2021/01/30 03:57:28;;;;;;;2.83;2.73;;;;;;;5.79;91.77;95417.69;5033786;28;20177;-69
2021/01/30 03:59:53;;;;;;;3.20;2.90;;;;;;;5.76;92.15;95428.53;5050553;28;20598;-69
2021/01/30 04:02:18;;;;;;;2.90;2.80;;;;;;;5.77;91.80;95422.31;5051458;28;20352;-69
2021/01/30 04:04:45;;;;;;;3.30;3.20;;;;;;;5.81;91.80;95415.63;5050241;28;20194;-69
2021/01/30 04:07:10;;;;;;;3.00;2.80;;;;;;;5.75;91.75;95413.94;5050450;28;20245;-70
2021/01/30 04:09:36;;;;;;;3.07;2.77;;;;;;;5.68;91.79;95415.09;5050914;28;20236;-73
2021/01/30 04:12:02;;;;;;;2.80;2.70;;;;;;;5.63;92.85;95402.78;5050418;28;20190;-70
2021/01/30 04:14:27;;;;;;;2.80;2.60;;;;;;;5.69;92.30;95395.88;5051049;28;20217;-69
2021/01/30 04:16:52;;;;;;;2.93;2.73;;;;;;;5.67;92.68;95395.31;5050652;28;20194;-71
2021/01/30 04:19:18;;;;;;;2.97;2.77;;;;;;;5.64;92.52;95391.38;5049570;28;20186;-69
2021/01/30 04:21:43;;;;;;;2.60;2.50;;;;;;;5.72;92.05;95379.84;5050116;28;20615;-69
2021/01/30 04:24:09;;;;;;;2.90;2.80;;;;;;;5.68;92.50;95382.09;5051003;28;20200;-69
2021/01/30 04:26:34;;;;;;;2.87;2.77;;;;;;;5.70;92.41;95374.84;5050067;28;20212;-69
2021/01/30 04:29:00;;;;;;;4.07;2.93;;;;;;;5.67;91.73;95375.31;5050237;28;20186;-70
2021/01/30 04:31:25;;;;;;;2.90;2.80;;;;;;;5.67;91.70;95379.72;5032148;28;20224;-70
2021/01/30 04:33:51;;;;;;;2.90;2.70;;;;;;;5.65;91.33;95366.97;5053999;28;20185;-70
2021/01/30 04:36:18;;;;;;;2.97;2.73;;;;;;;5.64;91.03;95369.78;5054827;28;20225;-69
2021/01/30 04:38:44;;;;;;;2.93;2.73;;;;;;;5.68;90.83;95368.31;5036194;28;20227;-69
2021/01/30 04:41:20;;;;;;;3.03;2.90;;;;;;;5.65;90.61;95374.75;5054840;28;20197;-70
2021/01/30 04:43:55;;;;;;;3.03;2.83;;;;;;;5.67;90.46;95374.53;5054598;28;20178;-69
2021/01/30 04:46:55;;;;;;;3.80;2.47;;;;;;;5.60;90.69;95366.88;5054053;28;20200;-69
2021/01/30 04:49:20;;;;;;;2.80;2.60;;;;;;;5.71;90.58;95373.03;5054680;28;20178;-70
2021/01/30 04:51:56;;;;;;;2.80;2.70;;;;;;;5.66;91.27;95362.56;5053781;28;20658;-71
2021/01/30 04:54:56;;;;;;;3.60;2.30;;;;;;;5.61;92.21;95362.47;5055314;28;20253;-70
2021/01/30 04:57:34;;;;;;;2.87;2.67;;;;;;;5.59;92.49;95370.47;4985569;28;20209;-70
2021/01/30 05:00:08;;;;;;;2.50;2.30;;;;;;;5.67;91.89;95362.34;5054080;28;20175;-70
2021/01/30 05:02:51;;;;;;;2.50;2.30;;;;;;;5.65;92.05;95364.38;5054356;28;20641;-70
2021/01/30 05:05:22;;;;;;;2.43;2.23;;;;;;;5.61;92.21;95360.66;5054240;28;20236;-72
2021/01/30 05:07:55;;;;;;;2.80;2.60;;;;;;;5.56;92.41;95352.75;5052470;28;20182;-70
2021/01/30 05:10:27;;;;;;;2.47;2.33;;;;;;;5.67;92.18;95358.94;5054197;28;20173;-70
2021/01/30 05:13:15;;;;;;;2.60;2.50;;;;;;;5.75;91.85;95351.56;5053702;28;20652;-70
2021/01/30 05:15:50;;;;;;;2.77;2.57;;;;;;;5.77;90.97;95357.31;5039370;28;20181;-74
2021/01/30 05:18:58;;;;;;;2.83;2.20;;;;;;;5.73;91.71;95350.22;5054616;28;20178;-69
2021/01/30 05:21:43;;;;;;;2.30;2.20;;;;;;;5.68;90.76;95360.53;5052860;28;20217;-69
2021/01/30 05:24:11;;;;;;;3.00;2.80;;;;;;;5.73;91.23;95353.63;5054007;28;20687;-69
2021/01/30 05:26:54;;;;;;;3.30;2.40;;;;;;;5.72;91.01;95357.22;5052775;28;20202;-69
2021/01/30 05:29:23;;;;;;;3.80;2.33;;;;;;;5.71;90.28;95354.84;5053872;28;20174;-70
2021/01/30 05:31:51;;;;;;;2.80;2.40;;;;;;;5.77;90.70;95344.31;5052842;28;20208;-70
2021/01/30 05:34:23;;;;;;;2.67;2.47;;;;;;;5.72;90.36;95341.63;5054290;28;20186;-68
2021/01/30 05:37:19;;;;;;;2.93;2.60;;;;;;;5.70;90.20;95338.47;5053156;28;20248;-69
2021/01/30 05:39:59;;;;;;;3.37;2.93;;;;;;;5.76;89.90;95331.56;5037956;28;20245;-69
2021/01/30 05:43:09;;;;;;;3.87;2.73;;;;;;;5.74;90.24;95338.81;5054140;28;20178;-69
2021/01/30 05:45:45;;;;;;;4.77;2.97;;;;;;;5.69;89.70;95325.69;5015185;28;20216;-69
2021/01/30 05:48:14;;;;;;;2.67;2.47;;;;;;;5.67;90.36;95335.53;5053890;28;20200;-70
2021/01/30 05:51:01;;;;;;;3.10;2.83;;;;;;;5.71;90.08;95324.44;5053590;28;20197;-75
2021/01/30 05:53:28;;;;;;;2.60;2.40;;;;;;;5.68;90.07;95330.13;5052896;28;20182;-69
2021/01/30 05:55:57;;;;;;;2.97;2.67;;;;;;;5.70;89.78;95333.25;5053083;28;20666;-69
2021/01/30 05:58:25;;;;;;;2.90;2.60;;;;;;;5.71;90.04;95329.66;5053642;28;20189;-70
2021/01/30 06:01:16;;;;;;;4.13;2.57;;;;;;;5.55;89.66;95322.59;5052760;28;20192;-69
2021/01/30 06:03:53;;;;;;;3.60;2.63;;;;;;;5.57;90.26;95325.75;5052755;28;20663;-74
2021/01/30 06:06:19;;;;;;;3.73;2.80;;;;;;;5.58;90.18;95323.91;5053716;28;20247;-69
2021/01/30 06:08:55;;;;;;;4.10;2.77;;;;;;;5.57;89.86;95323.16;5052761;28;20197;-72
2021/01/30 06:11:20;;;;;;;4.80;2.70;;;;;;;5.57;89.71;95323.16;5052766;28;20178;-70
2021/01/30 06:13:52;;;;;;;5.60;2.30;;;;;;;5.59;89.24;95328.09;5051980;28;20526;-70
2021/01/30 06:16:44;;;;;;;5.03;2.63;;;;;;;5.49;89.61;95320.91;5053419;28;20256;-69
2021/01/30 06:19:21;;;;;;;2.60;2.40;;;;;;;5.68;88.78;95317.13;5053356;28;20174;-69
2021/01/30 06:22:07;;;;;;;4.03;2.37;;;;;;;5.53;88.87;95319.41;5034220;28;20642;-70
2021/01/30 06:24:34;;;;;;;6.00;2.73;;;;;;;5.59;88.49;95308.09;5053411;28;20182;-69
2021/01/30 06:27:08;;;;;;;7.40;2.60;;;;;;;5.65;88.25;95311.59;5052332;28;20206;-69
2021/01/30 06:29:43;;;;;;;5.60;2.50;;;;;;;5.51;88.67;95305.88;5053030;28;20177;-70
2021/01/30 06:32:20;;;;;;;4.60;2.67;;;;;;;5.50;88.42;95317.28;5052123;28;20247;-70
2021/01/30 06:35:06;;;;;;;4.53;2.47;;;;;;;5.53;87.95;95311.63;5052225;28;20180;-70
2021/01/30 06:37:37;;;;;;;6.00;2.57;;;;;;;5.58;87.76;95310.94;5052174;28;20229;-72
2021/01/30 06:40:25;;;;;;;7.77;2.60;;;;;;;5.55;88.00;95314.00;5050259;28;20257;-70
2021/01/30 06:42:54;;;;;;;3.17;2.80;;;;;;;5.59;87.25;95307.31;5051621;28;20205;-70
2021/01/30 06:45:40;;;;;;;4.97;2.80;;;;;;;5.56;87.43;95305.97;5052119;28;20351;-69
2021/01/30 06:48:22;;;;;;;3.57;2.60;;;;;;;5.50;87.83;95293.13;5041190;28;20178;-70
2021/01/30 06:50:47;;;;;;;4.70;2.97;;;;;;;5.52;87.19;95299.66;5051863;28;20182;-69
2021/01/30 06:53:16;;;;;;;4.53;2.43;;;;;;;5.58;86.88;95300.53;5051811;28;20192;-70
2021/01/30 06:55:42;;;;;;;6.33;2.93;;;;;;;5.58;87.02;95301.31;5051720;28;20190;-76
2021/01/30 06:58:11;;;;;;;3.83;2.20;;;;;;;5.60;88.49;95299.28;5050854;28;20174;-74
2021/01/30 07:00:37;;;;;;;5.30;2.60;;;;;;;5.42;87.96;95296.84;5052143;28;20193;-74
2021/01/30 07:03:18;;;;;;;6.80;2.83;;;;;;;5.65;87.11;95296.78;5043516;28;20178;-74
2021/01/30 07:06:01;;;;;;;4.30;2.53;;;;;;;5.69;86.30;95297.09;5040473;28;20308;-77
2021/01/30 07:08:54;;;;;;;5.53;2.90;;;;;;;5.68;86.32;95290.34;5047963;28;20646;-75
2021/01/30 07:11:57;;;;;;;3.33;2.70;;;;;;;5.67;86.46;95288.75;5041789;28;20190;-75
2021/01/30 07:15:12;;;;;;;6.40;3.13;;;;;;;5.80;85.54;95283.25;5051880;28;20268;-74
2021/01/30 07:18:25;;;;;;;7.07;2.67;;;;;;;5.75;85.67;95293.56;5051892;28;20274;-75
2021/01/30 07:21:11;;;;;;;4.47;2.63;;;;;;;5.86;85.08;95290.13;5029468;28;20352;-75
2021/01/30 07:23:49;;;;;;;7.73;2.80;;;;;;;5.72;86.04;95284.44;5050049;28;20546;-76
2021/01/30 07:26:17;;;;;;;5.90;2.57;;;;;;;5.71;86.07;95292.47;5038423;28;20303;-77
2021/01/30 07:28:52;;;;;;;4.70;2.67;;;;;;;5.81;85.78;95277.03;5051623;28;20210;-74
2021/01/30 07:31:29;;;;;;;4.23;2.40;;;;;;;5.84;85.73;95276.59;5050744;28;20197;-76
2021/01/30 07:33:56;;;;;;;5.27;2.33;;;;;;;6.05;84.89;95278.53;5032970;28;20532;-75
2021/01/30 07:36:37;;;;;;;5.87;2.80;;;;;;;6.01;84.55;95268.84;5051683;28;20274;-76
2021/01/30 07:39:28;;;;;;;8.17;3.10;;;;;;;5.98;84.81;95261.50;5051090;28;20182;-75
2021/01/30 07:41:57;;;;;;;4.97;2.60;;;;;;;5.93;85.47;95264.03;5050348;28;20510;-75
2021/01/30 07:44:34;;;;;;;7.13;2.57;;;;;;;6.00;84.87;95262.06;5051284;28;20723;-75
2021/01/30 07:47:09;;;;;;;5.97;2.97;;;;;;;5.95;85.41;95259.38;5046257;28;20202;-75
2021/01/30 07:49:38;;;;;;;5.57;2.47;;;;;;;6.06;84.45;95259.31;5051077;28;20177;-74
2021/01/30 07:52:16;;;;;;;5.63;2.83;;;;;;;6.11;84.41;95250.81;5050542;28;20378;-74
2021/01/30 07:54:50;;;;;;;5.77;2.50;;;;;;;6.18;83.93;95243.66;5051438;28;20170;-75
2021/01/30 07:57:36;;;;;;;6.33;3.00;;;;;;;6.26;83.53;95251.03;5051202;28;20200;-76
2021/01/30 08:00:27;;;;;;;6.53;2.73;;;;;;;6.22;83.43;95255.94;5050352;28;20176;-75
2021/01/30 08:03:07;;;;;;;6.30;3.10;;;;;;;6.22;83.66;95249.94;5050167;28;20185;-73
2021/01/30 08:05:43;;;;;;;7.43;2.70;;;;;;;6.22;83.88;95244.75;5051359;28;20196;-75
2021/01/30 08:08:14;;;;;;;8.43;2.80;;;;;;;6.23;83.93;95248.91;5050576;28;20638;-76
2021/01/30 08:10:58;;;;;;;7.72;2.92;;;;;;;6.28;83.83;95250.81;5049985;28;20422;-75
2021/01/30 08:13:45;;;;;;;8.80;2.50;;;;;;;6.31;83.29;95250.31;5047036;28;20197;-75
2021/01/30 08:16:19;;;;;;;10.50;2.90;;;;;;;6.51;82.93;95251.44;5050621;28;20253;-74
2021/01/30 08:18:47;;;;;;;8.73;2.77;;;;;;;6.57;82.83;95244.47;5045805;28;20572;-73
2021/01/30 08:21:50;;;;;;;6.73;2.73;;;;;;;6.73;82.01;95254.06;5037554;28;20252;-74
2021/01/30 08:24:27;;;;;;;7.30;2.90;;;;;;;6.67;81.91;95252.44;5050344;28;20185;-76
2021/01/30 08:26:55;;;;;;;5.90;2.80;;;;;;;6.72;81.71;95242.09;5050052;28;20193;-75
2021/01/30 08:29:36;;;;;;;7.53;2.40;;;;;;;6.82;81.42;95242.22;5051049;28;20186;-75
2021/01/30 08:32:23;;;;;;;7.17;2.07;;;;;;;6.94;81.18;95240.28;5049342;28;20177;-73
2021/01/30 08:34:49;;;;;;;7.37;2.73;;;;;;;6.92;81.32;95244.94;5050582;28;20250;-74
2021/01/30 08:37:14;;;;;;;4.97;2.10;;;;;;;6.89;81.32;95242.03;5050333;28;20229;-75
2021/01/30 08:40:15;;;;;;;12.93;3.40;;;;;;;6.97;82.83;95239.78;5050782;28;20193;-72
2021/01/30 08:43:06;;;;;;;7.73;2.30;;;;;;;7.09;81.04;95232.66;5031357;28;20201;-75
2021/01/30 08:45:33;;;;;;;4.87;1.90;;;;;;;7.04;80.89;95237.81;5041940;28;20194;-75
2021/01/30 08:48:06;;;;;;;8.23;2.90;;;;;;;7.04;82.21;95226.59;5050129;28;20186;-76
2021/01/30 08:50:44;;;;;;;6.83;2.40;;;;;;;7.08;81.85;95228.47;5031885;28;20182;-76
2021/01/30 08:53:27;;;;;;;5.47;2.70;;;;;;;7.04;82.19;95219.56;5048572;28;20828;-77
2021/01/30 08:56:20;;;;;;;9.23;2.40;;;;;;;7.06;81.61;95227.16;5048770;28;20181;-75
2021/01/30 08:58:48;;;;;;;5.63;2.40;;;;;;;7.06;81.63;95227.16;5038802;28;20289;-75
2021/01/30 09:01:19;;;;;;;4.80;1.90;;;;;;;7.10;81.29;95233.44;5031683;28;20182;-75
2021/01/30 09:03:55;;;;;;;8.23;2.23;;;;;;;7.09;80.98;95231.84;5056270;28;20540;-77
2021/01/30 09:06:39;;;;;;;6.70;2.30;;;;;;;7.13;80.25;95238.19;5050103;28;20205;-72
2021/01/30 09:09:10;;;;;;;6.90;2.53;;;;;;;7.00;81.29;95228.91;5048648;28;20194;-79
2021/01/30 09:11:35;;;;;;;7.13;2.43;;;;;;;6.97;81.24;95231.97;5048059;28;20286;-79
2021/01/30 09:14:14;;;;;;;10.40;2.77;;;;;;;7.06;81.38;95222.72;5046573;28;20277;-76
2021/01/30 09:16:57;;;;;;;9.73;2.53;;;;;;;7.08;81.36;95217.25;5050727;28;20174;-75
2021/01/30 09:19:51;;;;;;;9.57;2.50;;;;;;;7.33;80.54;95221.97;5052703;28;20282;-75
2021/01/30 09:22:27;;;;;;;6.03;2.27;;;;;;;7.34;80.42;95220.94;5041077;28;20166;-75
2021/01/30 09:25:20;;;;;;;9.50;2.37;;;;;;;7.30;80.46;95212.06;5052372;28;20231;-70
2021/01/30 09:27:59;;;;;;;6.03;2.17;;;;;;;7.37;80.66;95208.22;5053672;28;20178;-76
2021/01/30 09:30:36;;;;;;;8.73;2.47;;;;;;;7.66;79.38;95208.75;5054062;28;20185;-74
2021/01/30 09:33:13;;;;;;;7.10;2.60;;;;;;;7.62;78.88;95207.69;5052623;28;20283;-74
2021/01/30 09:35:41;;;;;;;9.10;3.47;;;;;;;7.65;78.64;95211.59;5053397;28;20181;-74
2021/01/30 09:38:23;;;;;;;10.10;2.90;;;;;;;7.81;78.24;95210.72;5052644;28;20241;-75
2021/01/30 09:40:50;;;;;;;9.43;2.37;;;;;;;7.75;78.48;95209.88;5053525;28;20170;-75
2021/01/30 09:43:21;;;;;;;7.70;2.40;;;;;;;7.74;78.66;95205.72;5052412;28;20194;-75
2021/01/30 09:45:51;;;;;;;5.17;1.70;;;;;;;7.85;78.70;95206.59;5052785;28;20666;-75
2021/01/30 09:48:18;;;;;;;8.00;2.03;;;;;;;8.03;77.91;95208.03;5052944;28;20256;-75
2021/01/30 09:50:50;;;;;;;8.13;2.23;;;;;;;8.06;77.71;95210.16;5053251;28;20527;-75
2021/01/30 09:53:27;;;;;;;9.03;2.63;;;;;;;8.05;77.90;95211.19;5052443;28;20186;-75
2021/01/30 09:56:13;;;;;;;7.20;1.90;;;;;;;8.08;77.56;95208.84;5052896;28;20166;-72
2021/01/30 09:58:42;;;;;;;6.63;2.30;;;;;;;8.13;76.93;95206.31;5053556;28;20213;-71
2021/01/30 10:01:26;;;;;;;6.63;2.03;;;;;;;8.10;77.50;95209.41;5051814;28;20208;-72
2021/01/30 10:03:53;;;;;;;6.20;2.43;;;;;;;8.13;77.29;95203.69;5052996;28;20173;-72
2021/01/30 10:06:27;;;;;;;6.87;2.67;;;;;;;8.19;77.66;95207.13;5052600;28;20206;-71
2021/01/30 10:08:53;;;;;;;7.70;2.40;;;;;;;8.16;77.56;95205.78;5052526;28;20189;-71
2021/01/30 10:11:21;;;;;;;6.90;2.10;;;;;;;8.23;77.07;95202.97;5049523;28;20498;-74
2021/01/30 10:13:58;;;;;;;9.97;2.83;;;;;;;8.24;76.88;95204.56;5051852;28;20185;-74
2021/01/30 10:16:26;;;;;;;3.97;1.73;;;;;;;8.40;76.91;95193.19;5053595;28;20186;-75
2021/01/30 10:18:57;;;;;;;7.23;2.20;;;;;;;8.43;76.84;95194.50;5035162;28;20186;-75
2021/01/30 10:21:40;;;;;;;7.33;2.53;;;;;;;8.47;76.98;95187.75;5052669;28;20186;-75
2021/01/30 10:24:30;;;;;;;6.20;2.47;;;;;;;8.26;78.57;95184.97;5051839;28;20205;-75
2021/01/30 10:27:11;;;;;;;6.27;1.97;;;;;;;8.34;78.35;95186.38;5043989;28;20218;-74
2021/01/30 10:29:36;;;;;;;6.90;2.07;;;;;;;8.48;78.27;95189.31;5044854;28;20213;-76
2021/01/30 10:32:08;;;;;;;5.93;2.20;;;;;;;8.46;78.73;95179.16;5048170;28;20214;-74
2021/01/30 10:35:01;;;;;;;9.53;2.20;;;;;;;8.41;79.73;95179.13;5034461;28;20276;-75
2021/01/30 10:37:26;;;;;;;9.20;2.20;;;;;;;8.42;80.55;95166.81;5045162;28;20253;-74
2021/01/30 10:40:00;;;;;;;7.93;2.30;;;;;;;8.29;80.20;95170.66;5052416;28;20210;-74
2021/01/30 10:42:30;;;;;;;10.97;2.87;;;;;;;8.44;79.91;95157.72;5052373;28;20173;-72
2021/01/30 10:45:01;;;;;;;7.27;2.00;;;;;;;8.46;79.72;95162.69;5051541;28;20217;-75
2021/01/30 10:47:28;;;;;;;8.40;2.30;;;;;;;8.37;80.95;95153.75;5052285;28;20198;-74
2021/01/30 10:50:12;;;;;;;6.93;2.00;;;;;;;8.23;81.38;95158.59;5051908;28;20189;-74
2021/01/30 10:52:37;;;;;;;6.40;2.13;;;;;;;8.17;81.10;95165.63;5052294;28;20188;-77
2021/01/30 10:55:23;;;;;;;7.47;2.00;;;;;;;8.06;80.43;95155.34;5050648;28;20178;-76
2021/01/30 10:57:48;;;;;;;6.00;2.00;;;;;;;7.93;83.00;95157.34;5041258;28;20646;-75
2021/01/30 11:00:31;;;;;;;4.33;2.13;;;;;;;7.94;82.76;95158.13;5050937;28;20182;-75
2021/01/30 11:02:57;;;;;;;4.50;2.20;;;;;;;8.05;81.59;95159.78;5051402;28;20178;-75
2021/01/30 11:05:26;;;;;;;4.03;1.70;;;;;;;7.84;80.97;95148.44;5051835;28;20200;-75
2021/01/30 11:08:00;;;;;;;3.07;1.93;;;;;;;8.02;81.05;95152.47;5051983;28;20182;-77
2021/01/30 11:10:28;;;;;;;7.57;2.10;;;;;;;8.02;80.64;95155.09;5051174;28;20207;-76
2021/01/30 11:13:06;;;;;;;5.63;1.93;;;;;;;7.96;80.82;95148.25;5051324;28;20193;-74
2021/01/30 11:15:32;;;;;;;5.93;1.87;;;;;;;8.06;81.19;95147.53;5049325;28;20170;-77
2021/01/30 11:18:19;;;;;;;3.90;2.10;;;;;;;8.05;82.01;95138.13;5041718;28;20635;-74
2021/01/30 11:20:47;;;;;;;5.40;2.33;;;;;;;7.91;83.20;95138.53;5039163;28;20217;-78
2021/01/30 11:23:36;;;;;;;6.70;2.50;;;;;;;8.13;84.26;95140.28;5043648;28;20214;-77
2021/01/30 11:26:21;;;;;;;5.57;2.23;;;;;;;8.04;84.65;95129.50;5039505;28;20655;-77
2021/01/30 11:28:47;;;;;;;11.83;2.73;;;;;;;8.16;83.90;95124.91;5051476;28;20268;-78
2021/01/30 11:31:14;;;;;;;11.77;2.87;;;;;;;8.26;84.36;95124.94;5050052;28;20639;-78
2021/01/30 11:33:40;;;;;;;6.90;2.60;;;;;;;8.30;84.80;95123.44;5034810;28;20861;-79
2021/01/30 11:36:09;;;;;;;12.40;2.60;;;;;;;8.37;83.75;95117.19;5050645;28;20182;-78
2021/01/30 11:38:34;;;;;;;8.83;2.10;;;;;;;8.39;83.86;95108.09;5051437;28;20675;-78
2021/01/30 11:41:00;;;;;;;8.27;2.10;;;;;;;8.44;84.41;95104.72;5050879;28;20185;-79
2021/01/30 11:43:26;;;;;;;6.07;2.33;;;;;;;8.37;84.73;95098.94;5050320;28;20190;-76
2021/01/30 11:45:53;;;;;;;5.67;2.67;;;;;;;8.40;84.66;95095.81;5051223;28;20205;-77
2021/01/30 11:48:20;;;;;;;7.47;2.20;;;;;;;8.47;84.90;95091.94;5049396;28;20204;-77
2021/01/30 11:50:46;;;;;;;10.00;2.87;;;;;;;8.48;83.72;95074.44;5051087;28;20185;-78
2021/01/30 11:53:15;;;;;;;8.47;3.03;;;;;;;8.62;84.14;95078.16;5047552;28;20265;-78
2021/01/30 11:55:41;;;;;;;7.00;2.53;;;;;;;8.51;84.48;95081.78;5064664;28;20269;-76
2021/01/30 11:58:07;;;;;;;8.47;2.73;;;;;;;8.50;84.72;95065.31;5050284;28;20193;-77
2021/01/30 12:00:33;;;;;;;8.87;2.83;;;;;;;8.41;85.33;95059.03;5051178;28;20544;-76
2021/01/30 12:02:59;;;;;;;9.77;2.27;;;;;;;8.42;84.87;95060.56;5049517;28;20181;-74
2021/01/30 12:05:25;;;;;;;6.87;2.80;;;;;;;8.38;85.66;95056.13;5050819;28;20243;-76
2021/01/30 12:07:51;;;;;;;6.70;2.27;;;;;;;8.33;84.76;95055.06;5050767;28;20205;-76
2021/01/30 12:10:18;;;;;;;7.43;2.63;;;;;;;8.26;85.36;95051.09;5049975;28;20200;-77
2021/01/30 12:12:44;;;;;;;9.17;3.00;;;;;;;8.33;84.52;95044.63;5047775;28;20572;-77